Time;durP1;ratioP1;P1;durP2;ratioP2;P2;SDS_P1;SDS_P2;PMS_P1;PMS_P2;Temp;Humidity;BMP_temperature;BMP_pressure;BME280_temperature;BME280_humidity;BME280_pressure;Samples;Min_cycle;Max_cycle;Signal;HPM_P1;HPM_P2
2021/01/21 00:00:07;;;;;;;6.32;3.63;;;;;;;2.25;68.70;95130.00;5070770;28;20048;-71
2021/01/21 00:02:33;;;;;;;5.28;3.28;;;;;;;2.28;69.04;95133.97;5070300;28;20055;-71
2021/01/21 00:05:00;;;;;;;12.18;6.28;;;;;;;2.28;68.94;95133.97;5071278;28;20075;-72
2021/01/21 00:07:26;;;;;;;7.03;4.63;;;;;;;2.24;69.20;95120.63;5061782;28;20057;-71
2021/01/21 00:09:52;;;;;;;8.35;4.80;;;;;;;2.19;69.12;95136.75;5071851;28;20037;-71
2021/01/21 00:12:18;;;;;;;5.90;3.65;;;;;;;2.16;69.00;95120.81;5069790;28;20480;-71
2021/01/21 00:14:44;;;;;;;8.98;4.95;;;;;;;2.15;69.26;95119.25;5071111;28;20052;-71
2021/01/21 00:17:10;;;;;;;5.10;3.85;;;;;;;2.14;69.47;95127.97;5073040;28;20372;-71
2021/01/21 00:19:37;;;;;;;13.55;6.80;;;;;;;2.11;69.39;95113.66;5068203;28;20052;-71
2021/01/21 00:22:03;;;;;;;7.90;3.92;;;;;;;2.12;68.87;95114.47;5072338;28;20056;-71
2021/01/21 00:24:29;;;;;;;5.60;3.75;;;;;;;2.10;69.17;95119.84;5052150;28;20068;-71
2021/01/21 00:26:55;;;;;;;4.82;3.22;;;;;;;2.08;68.78;95108.91;5039882;28;20057;-71
2021/01/21 00:29:22;;;;;;;6.20;3.08;;;;;;;2.07;68.70;95116.84;5049174;28;20473;-71
2021/01/21 00:31:49;;;;;;;5.30;3.55;;;;;;;2.06;68.87;95097.97;5052616;28;20037;-71
2021/01/21 00:34:15;;;;;;;5.60;3.95;;;;;;;2.08;69.13;95126.19;5046416;28;20061;-71
2021/01/21 00:36:41;;;;;;;6.20;4.15;;;;;;;2.07;69.07;95101.34;5049381;28;20056;-71
2021/01/21 00:39:07;;;;;;;5.65;3.42;;;;;;;2.06;68.87;95082.44;5053783;28;20049;-71
2021/01/21 00:41:34;;;;;;;6.00;3.75;;;;;;;2.06;68.97;95102.31;5050777;28;20056;-74
2021/01/21 00:44:00;;;;;;;10.07;5.60;;;;;;;2.06;69.61;95092.78;5049236;28;20056;-72
2021/01/21 00:46:26;;;;;;;7.15;4.82;;;;;;;2.07;69.50;95088.41;5039303;28;20132;-71
2021/01/21 00:48:52;;;;;;;5.68;3.70;;;;;;;2.08;69.09;95077.88;5025707;28;20058;-71
2021/01/21 00:51:19;;;;;;;7.93;3.88;;;;;;;2.13;69.48;95085.03;5040035;28;20045;-72
2021/01/21 00:53:46;;;;;;;4.18;2.33;;;;;;;2.15;69.06;95083.03;5054574;28;20048;-71
2021/01/21 00:56:13;;;;;;;7.38;3.25;;;;;;;2.18;69.34;95093.78;5055360;28;20048;-72
2021/01/21 00:58:39;;;;;;;7.35;4.20;;;;;;;2.20;69.76;95096.94;5046622;28;20049;-71
2021/01/21 01:01:05;;;;;;;6.40;3.63;;;;;;;2.21;69.78;95093.38;5043198;28;20428;-71
2021/01/21 01:03:31;;;;;;;5.32;3.03;;;;;;;2.21;69.26;95090.81;5046908;28;20393;-72
2021/01/21 01:05:58;;;;;;;3.92;2.42;;;;;;;2.26;68.75;95097.16;5056296;28;20056;-71
2021/01/21 01:08:25;;;;;;;3.88;2.55;;;;;;;2.32;68.61;95080.84;5044359;28;20414;-71
2021/01/21 01:10:51;;;;;;;3.22;2.42;;;;;;;2.37;68.34;95071.50;5052586;28;20386;-71
2021/01/21 01:13:17;;;;;;;3.78;2.00;;;;;;;2.47;68.14;95070.28;5052456;28;20409;-71
2021/01/21 01:15:43;;;;;;;2.38;1.90;;;;;;;2.56;67.74;95080.25;5053965;28;20052;-71
2021/01/21 01:18:09;;;;;;;2.83;1.88;;;;;;;2.60;67.85;95067.69;5055756;28;20033;-71
2021/01/21 01:20:35;;;;;;;3.15;2.13;;;;;;;2.63;67.43;95072.47;5055353;28;20045;-71
2021/01/21 01:23:02;;;;;;;4.18;2.00;;;;;;;2.68;67.39;95074.44;5037034;28;20389;-72
2021/01/21 01:25:28;;;;;;;3.15;2.30;;;;;;;2.73;67.21;95077.22;5054713;28;20053;-71
2021/01/21 01:27:54;;;;;;;4.60;2.20;;;;;;;2.84;66.66;95090.34;5053863;28;20053;-72
2021/01/21 01:30:21;;;;;;;3.13;2.08;;;;;;;2.91;66.66;95085.13;5055265;28;20091;-71
2021/01/21 01:32:48;;;;;;;2.55;1.80;;;;;;;2.93;66.73;95083.16;5054384;28;20045;-72
2021/01/21 01:35:15;;;;;;;3.75;2.38;;;;;;;2.95;66.70;95075.19;5054252;28;20048;-72
2021/01/21 01:37:44;;;;;;;3.28;2.20;;;;;;;2.96;66.35;95079.34;5048568;28;20052;-71
2021/01/21 01:40:12;;;;;;;3.47;2.28;;;;;;;2.99;65.99;95071.97;5050294;28;20041;-71
2021/01/21 01:42:39;;;;;;;3.33;2.03;;;;;;;3.00;65.49;95052.88;5045250;28;20040;-71
2021/01/21 01:45:07;;;;;;;3.20;1.92;;;;;;;3.01;65.99;95054.44;5053675;28;20037;-71
2021/01/21 01:47:34;;;;;;;3.10;2.05;;;;;;;3.01;65.70;95061.41;5053260;28;20047;-71
2021/01/21 01:50:00;;;;;;;4.20;2.53;;;;;;;2.99;65.66;95060.81;5032963;28;20053;-72
2021/01/21 01:52:29;;;;;;;3.65;1.90;;;;;;;2.97;65.36;95058.44;5054772;28;20040;-72
2021/01/21 01:54:55;;;;;;;3.70;2.10;;;;;;;2.97;65.38;95052.47;5046912;28;20052;-72
2021/01/21 01:57:22;;;;;;;2.50;2.03;;;;;;;2.98;65.61;95044.50;5046200;28;20052;-71
2021/01/21 01:59:52;;;;;;;2.70;1.77;;;;;;;2.98;65.02;95035.91;5049262;28;20052;-71
2021/01/21 02:02:18;;;;;;;3.97;2.08;;;;;;;3.02;65.00;95024.97;5016927;28;20399;-71
2021/01/21 02:04:48;;;;;;;3.58;2.15;;;;;;;3.10;65.10;95031.69;5052085;28;20100;-73
2021/01/21 02:07:14;;;;;;;2.25;1.65;;;;;;;3.14;64.51;95027.69;5053007;28;20049;-71
2021/01/21 02:09:41;;;;;;;3.03;2.00;;;;;;;3.20;64.73;95015.72;5036249;28;20495;-72
2021/01/21 02:12:24;;;;;;;2.72;1.90;;;;;;;3.21;62.61;94994.78;5052926;28;20404;-71
2021/01/21 02:15:06;;;;;;;2.28;2.03;;;;;;;3.23;62.79;94994.56;5047863;28;20041;-72
2021/01/21 02:17:40;;;;;;;3.00;2.10;;;;;;;3.23;63.88;95003.16;5048470;28;20040;-72
2021/01/21 02:20:30;;;;;;;;;;;;;;;3.21;62.09;94994.78;5052080;28;20504;-72
2021/01/21 02:23:18;;;;;;;2.53;1.90;;;;;;;3.18;64.10;95015.13;5024381;28;20150;-72
2021/01/21 02:25:50;;;;;;;4.22;2.05;;;;;;;3.15;64.46;95007.75;5051529;28;20048;-72
2021/01/21 02:28:45;;;;;;;3.55;2.05;;;;;;;3.10;63.18;94992.84;5045637;28;20120;-71
2021/01/21 02:31:49;;;;;;;2.45;1.75;;;;;;;3.10;63.22;94986.88;5035787;28;20037;-71
2021/01/21 02:34:21;;;;;;;2.25;1.70;;;;;;;3.10;64.17;94977.31;5044009;28;20048;-71
2021/01/21 02:36:54;;;;;;;2.25;1.95;;;;;;;3.08;64.55;94978.53;5055248;28;20064;-72
2021/01/21 02:39:22;;;;;;;2.60;1.90;;;;;;;3.03;64.42;94987.69;5049525;28;20049;-71
2021/01/21 02:41:49;;;;;;;1.77;1.67;;;;;;;3.01;64.44;95004.44;5046499;28;20044;-72
2021/01/21 02:44:15;;;;;;;3.20;2.08;;;;;;;2.99;64.27;95017.59;5034243;28;20048;-72
2021/01/21 02:46:44;;;;;;;2.25;1.83;;;;;;;2.97;64.43;95017.00;5051712;28;20060;-72
2021/01/21 02:49:10;;;;;;;4.57;2.08;;;;;;;2.97;64.60;95016.22;5053109;28;20045;-72
2021/01/21 02:51:45;;;;;;;3.67;2.45;;;;;;;3.00;64.04;95014.03;5053533;28;20045;-72
2021/01/21 02:54:35;;;;;;;2.10;1.70;;;;;;;3.00;63.20;95008.84;5048008;28;20037;-72
2021/01/21 02:57:06;;;;;;;3.10;1.50;;;;;;;3.04;64.28;95011.78;5052635;28;20059;-72
2021/01/21 02:59:39;;;;;;;2.58;1.80;;;;;;;3.07;63.91;95002.81;5051254;28;20045;-72
2021/01/21 03:02:09;;;;;;;4.15;2.20;;;;;;;3.09;64.21;94998.22;5047272;28;20036;-72
2021/01/21 03:04:39;;;;;;;3.22;2.42;;;;;;;3.11;63.47;94998.81;5042410;28;20041;-72
2021/01/21 03:07:09;;;;;;;2.00;1.55;;;;;;;3.13;63.86;94991.63;5053033;28;20076;-72
2021/01/21 03:09:36;;;;;;;3.58;1.85;;;;;;;3.14;63.86;94978.47;5054638;28;20033;-72
2021/01/21 03:12:25;;;;;;;4.97;1.88;;;;;;;3.16;62.39;94970.50;5042014;28;20052;-72
2021/01/21 03:14:54;;;;;;;4.65;1.67;;;;;;;3.21;63.62;94981.03;5049758;28;20049;-72
2021/01/21 03:17:24;;;;;;;2.38;1.60;;;;;;;3.26;62.79;94978.63;5051714;28;20098;-72
2021/01/21 03:19:51;;;;;;;1.95;1.50;;;;;;;3.32;63.51;94984.75;5051450;28;20056;-72
2021/01/21 03:22:19;;;;;;;5.97;1.70;;;;;;;3.38;62.85;94991.69;5046486;28;20037;-72
2021/01/21 03:24:46;;;;;;;4.70;1.65;;;;;;;3.40;62.95;94987.91;5061419;28;20048;-72
2021/01/21 03:27:12;;;;;;;3.42;1.95;;;;;;;3.42;63.05;94985.91;5073397;28;20055;-72
2021/01/21 03:29:38;;;;;;;2.08;1.50;;;;;;;3.39;63.07;94985.53;5069702;28;20048;-72
2021/01/21 03:32:05;;;;;;;3.67;1.60;;;;;;;3.35;62.97;94984.34;5073788;28;20382;-72
2021/01/21 03:34:31;;;;;;;2.28;1.60;;;;;;;3.33;63.30;94997.50;5059522;28;20052;-72
2021/01/21 03:36:58;;;;;;;6.32;1.98;;;;;;;3.30;63.36;94992.75;5070244;28;20448;-72
2021/01/21 03:39:24;;;;;;;2.25;1.80;;;;;;;3.32;63.09;94972.63;5072356;28;20051;-72
2021/01/21 03:41:51;;;;;;;3.90;1.67;;;;;;;3.37;63.10;94982.34;5063615;28;20041;-72
2021/01/21 03:44:18;;;;;;;2.25;1.52;;;;;;;3.40;63.18;94987.91;5068862;28;20059;-72
2021/01/21 03:46:45;;;;;;;5.15;1.88;;;;;;;3.41;63.26;94983.53;5064566;28;20064;-72
2021/01/21 03:49:12;;;;;;;4.25;1.88;;;;;;;3.39;63.33;94973.34;5060613;28;20044;-72
2021/01/21 03:51:38;;;;;;;2.30;1.70;;;;;;;3.43;63.14;94971.16;5071095;28;20044;-72
2021/01/21 03:54:04;;;;;;;4.88;2.20;;;;;;;3.41;63.14;94966.16;5067413;28;20049;-72
2021/01/21 03:56:30;;;;;;;3.97;1.65;;;;;;;3.40;63.08;94969.78;5066414;28;20393;-72
2021/01/21 03:58:56;;;;;;;2.63;1.67;;;;;;;3.38;63.29;94963.19;5066866;28;20485;-72
2021/01/21 04:01:23;;;;;;;3.25;1.98;;;;;;;3.35;63.39;94963.63;5071620;28;20479;-72
2021/01/21 04:03:50;;;;;;;2.20;1.80;;;;;;;3.34;62.91;94968.03;5063542;28;20052;-72
2021/01/21 04:06:16;;;;;;;4.97;1.88;;;;;;;3.37;62.89;94966.81;5065107;28;20152;-72
2021/01/21 04:08:43;;;;;;;3.10;1.98;;;;;;;3.43;62.95;94966.75;5072473;28;20404;-72
2021/01/21 04:11:09;;;;;;;3.30;2.00;;;;;;;3.45;62.88;94967.34;5070988;28;20040;-72
2021/01/21 04:13:35;;;;;;;2.42;1.58;;;;;;;3.49;62.50;94953.97;5060253;28;20052;-72
2021/01/21 04:16:01;;;;;;;3.13;1.80;;;;;;;3.51;62.54;94962.31;5065313;28;20575;-72
2021/01/21 04:18:27;;;;;;;3.58;1.98;;;;;;;3.53;62.73;94971.50;5073062;28;20036;-72
2021/01/21 04:20:54;;;;;;;2.63;1.90;;;;;;;3.53;62.72;94981.84;5075574;28;20059;-72
2021/01/21 04:23:20;;;;;;;3.90;1.70;;;;;;;3.52;62.81;94980.25;5063999;28;20042;-72
2021/01/21 04:25:46;;;;;;;1.73;1.45;;;;;;;3.52;62.49;94974.28;5056148;28;20508;-72
2021/01/21 04:28:12;;;;;;;2.35;1.80;;;;;;;3.53;62.23;94971.50;5055709;28;20048;-72
2021/01/21 04:30:39;;;;;;;3.00;1.90;;;;;;;3.54;62.52;94970.47;5055433;28;20053;-73
2021/01/21 04:33:05;;;;;;;2.67;1.80;;;;;;;3.58;61.96;94963.88;5049177;28;20068;-72
2021/01/21 04:35:31;;;;;;;3.20;1.83;;;;;;;3.64;61.95;94967.41;5055285;28;20048;-72
2021/01/21 04:37:58;;;;;;;2.65;1.80;;;;;;;3.71;61.92;94968.16;5053034;28;20052;-72
2021/01/21 04:40:27;;;;;;;1.98;1.60;;;;;;;3.74;61.27;94966.94;5055746;28;20049;-72
2021/01/21 04:42:54;;;;;;;2.05;1.55;;;;;;;3.74;61.63;94959.97;5054803;28;20037;-72
2021/01/21 04:45:20;;;;;;;2.42;1.70;;;;;;;3.75;61.52;94968.53;5043936;28;20050;-72
2021/01/21 04:47:47;;;;;;;3.40;2.00;;;;;;;3.74;61.47;94961.75;5056244;28;20053;-72
2021/01/21 04:50:14;;;;;;;3.67;1.73;;;;;;;3.74;61.65;94975.53;5055510;28;20044;-72
2021/01/21 04:52:43;;;;;;;4.68;1.65;;;;;;;3.70;61.80;94978.75;5053440;28;20056;-72
2021/01/21 04:55:20;;;;;;;1.83;1.52;;;;;;;3.66;61.43;94968.78;5054907;28;20048;-72
2021/01/21 04:58:02;;;;;;;2.63;1.63;;;;;;;3.63;61.33;94969.22;5052488;28;20045;-73
2021/01/21 05:00:29;;;;;;;3.80;1.70;;;;;;;3.63;61.64;94981.38;5055130;28;20075;-71
2021/01/21 05:02:56;;;;;;;4.10;1.60;;;;;;;3.63;61.63;94974.41;5055438;28;20461;-71
2021/01/21 05:05:23;;;;;;;3.20;2.00;;;;;;;3.65;61.77;94980.19;5055652;28;20041;-72
2021/01/21 05:07:49;;;;;;;2.08;1.55;;;;;;;3.68;61.59;94978.16;5050149;28;20057;-72
2021/01/21 05:10:16;;;;;;;2.13;1.65;;;;;;;3.69;61.85;94980.53;5053240;28;20060;-72
2021/01/21 05:12:43;;;;;;;1.92;1.60;;;;;;;3.71;61.64;94975.94;5051323;28;20041;-72
2021/01/21 05:15:09;;;;;;;3.67;1.85;;;;;;;3.75;61.45;94978.91;5056337;28;20382;-72
2021/01/21 05:17:35;;;;;;;2.17;1.70;;;;;;;3.81;61.49;94981.44;5048672;28;20114;-71
2021/01/21 05:20:02;;;;;;;1.73;1.52;;;;;;;3.84;60.86;94968.06;5053986;28;20527;-72
2021/01/21 05:22:29;;;;;;;2.05;1.52;;;;;;;3.89;60.97;94977.03;5053546;28;20056;-71
2021/01/21 05:24:55;;;;;;;3.53;1.60;;;;;;;3.93;60.46;94970.41;5050243;28;20059;-72
2021/01/21 05:27:22;;;;;;;4.10;1.90;;;;;;;3.97;60.97;94967.16;5040191;28;20059;-72
2021/01/21 05:29:49;;;;;;;2.58;1.50;;;;;;;4.00;60.50;94966.72;5052268;28;20052;-72
2021/01/21 05:32:19;;;;;;;2.47;1.50;;;;;;;4.03;59.02;94970.69;5051411;28;20045;-72
2021/01/21 05:34:47;;;;;;;2.17;1.70;;;;;;;4.03;60.23;94971.50;5045650;28;20049;-72
2021/01/21 05:37:14;;;;;;;2.10;1.50;;;;;;;4.03;60.20;94981.06;5042305;28;20072;-71
2021/01/21 05:39:45;;;;;;;3.28;1.67;;;;;;;4.05;59.81;94969.50;5053046;28;20052;-72
2021/01/21 05:42:12;;;;;;;1.60;1.50;;;;;;;4.09;60.17;94972.44;5052766;28;20056;-73
2021/01/21 05:44:40;;;;;;;2.85;1.60;;;;;;;4.14;60.11;94974.41;5037097;28;20477;-71
2021/01/21 05:47:08;;;;;;;3.80;1.60;;;;;;;4.13;59.91;94972.81;5050725;28;20041;-71
2021/01/21 05:49:35;;;;;;;2.67;1.85;;;;;;;4.13;60.00;94973.59;5051038;28;20041;-71
2021/01/21 05:52:01;;;;;;;2.53;1.80;;;;;;;4.12;59.77;94968.63;5040174;28;20473;-72
2021/01/21 05:54:28;;;;;;;2.10;1.70;;;;;;;4.11;59.59;94975.59;5036895;28;20049;-71
2021/01/21 05:57:00;;;;;;;1.88;1.30;;;;;;;4.11;59.58;94969.63;5052160;28;20037;-71
2021/01/21 05:59:29;;;;;;;1.98;1.63;;;;;;;4.11;59.71;94972.22;5052455;28;20041;-72
2021/01/21 06:01:56;;;;;;;2.00;1.63;;;;;;;4.09;59.74;94961.28;5053388;28;20398;-72
2021/01/21 06:04:26;;;;;;;2.63;1.50;;;;;;;4.06;59.54;94962.50;5055106;28;20116;-71
2021/01/21 06:06:54;;;;;;;4.57;1.75;;;;;;;4.04;59.81;94967.09;5046640;28;20045;-72
2021/01/21 06:09:31;;;;;;;2.88;1.95;;;;;;;4.00;59.56;94965.94;5038184;28;20104;-72
2021/01/21 06:12:01;;;;;;;3.03;1.90;;;;;;;3.96;59.86;94968.16;5052821;28;20048;-72
2021/01/21 06:14:29;;;;;;;2.58;1.90;;;;;;;3.93;60.18;94963.41;5048603;28;20053;-75
2021/01/21 06:16:56;;;;;;;3.53;2.00;;;;;;;3.90;60.23;94970.81;5053493;28;20469;-72
2021/01/21 06:19:23;;;;;;;3.53;1.80;;;;;;;3.86;60.09;94976.44;5052583;28;20041;-71
2021/01/21 06:21:59;;;;;;;6.53;3.15;;;;;;;3.85;59.88;94964.47;5030317;28;20049;-71
2021/01/21 06:24:30;;;;;;;6.90;2.30;;;;;;;3.88;59.38;94959.84;5056539;28;20075;-71
2021/01/21 06:27:00;;;;;;;5.63;2.75;;;;;;;3.91;59.81;94967.22;5070012;28;20061;-71
2021/01/21 06:29:28;;;;;;;4.90;3.03;;;;;;;3.98;59.62;94963.56;5072348;28;20346;-73
2021/01/21 06:32:00;;;;;;;7.50;2.90;;;;;;;4.09;58.86;94964.66;5074695;28;20025;-71
2021/01/21 06:34:31;;;;;;;8.18;2.50;;;;;;;4.15;59.15;94969.00;5060880;28;20383;-75
2021/01/21 06:37:06;;;;;;;3.85;2.17;;;;;;;4.22;58.54;94950.75;5071015;28;20056;-71
2021/01/21 06:39:52;;;;;;;2.97;2.00;;;;;;;4.25;57.64;94945.16;5074726;28;20028;-72
2021/01/21 06:42:27;;;;;;;8.05;2.53;;;;;;;4.29;58.26;94948.91;5064759;28;20051;-71
2021/01/21 06:44:55;;;;;;;3.83;2.03;;;;;;;4.30;58.61;94955.66;5065551;28;20048;-71
2021/01/21 06:47:25;;;;;;;2.60;1.95;;;;;;;4.32;58.83;94951.06;5072591;28;20037;-71
2021/01/21 06:49:58;;;;;;;4.55;2.13;;;;;;;4.32;58.47;94942.50;5068324;28;20047;-71
2021/01/21 06:52:25;;;;;;;3.90;2.20;;;;;;;4.30;58.83;94949.69;5067703;28;20037;-71
2021/01/21 06:54:52;;;;;;;2.42;1.50;;;;;;;4.27;58.72;94948.31;5070649;28;20036;-72
2021/01/21 06:57:39;;;;;;;4.60;1.67;;;;;;;4.24;58.15;94944.38;5062945;28;20051;-73
2021/01/21 07:00:34;;;;;;;5.18;2.72;;;;;;;4.24;58.92;94943.56;5067417;28;20485;-72
2021/01/21 07:03:01;;;;;;;4.75;2.50;;;;;;;4.25;59.03;94942.56;5060616;28;20044;-71
2021/01/21 07:05:28;;;;;;;3.22;2.30;;;;;;;4.27;59.17;94938.75;5070325;28;20053;-72
2021/01/21 07:08:01;;;;;;;3.17;1.80;;;;;;;4.27;59.36;94938.75;5071033;28;20057;-71
2021/01/21 07:10:44;;;;;;;3.35;1.77;;;;;;;4.26;59.82;94950.13;5071150;28;20047;-72
2021/01/21 07:13:16;;;;;;;3.10;2.50;;;;;;;4.26;60.41;94954.50;5071856;28;20061;-72
2021/01/21 07:16:03;;;;;;;3.60;2.00;;;;;;;4.31;60.10;94957.28;5072586;28;20060;-72
2021/01/21 07:18:37;;;;;;;2.65;1.73;;;;;;;4.38;61.29;94958.00;5073538;28;20055;-72
2021/01/21 07:21:05;;;;;;;2.60;1.27;;;;;;;4.46;60.80;94947.31;5058675;28;20041;-72
2021/01/21 07:23:50;;;;;;;2.92;1.38;;;;;;;4.50;62.77;94965.06;5067948;28;20048;-71
2021/01/21 07:26:30;;;;;;;3.83;1.52;;;;;;;4.48;63.29;94979.06;5039107;28;20049;-71
2021/01/21 07:29:10;;;;;;;2.95;1.83;;;;;;;4.46;62.79;94978.47;5051689;28;20396;-71
2021/01/21 07:31:55;;;;;;;7.05;1.83;;;;;;;4.41;63.57;94983.53;5043128;28;20041;-71
2021/01/21 07:34:27;;;;;;;1.50;1.30;;;;;;;4.37;63.04;94973.78;5051910;28;20044;-71
2021/01/21 07:37:12;;;;;;;2.70;1.20;;;;;;;4.43;65.48;94991.88;5046512;28;20505;-72
2021/01/21 07:39:49;;;;;;;1.27;1.10;;;;;;;4.53;64.49;94975.81;5052303;28;20037;-75
2021/01/21 07:42:16;;;;;;;2.30;1.30;;;;;;;4.59;62.27;94969.75;5039511;28;20068;-72
2021/01/21 07:44:51;;;;;;;2.20;1.27;;;;;;;4.60;63.68;94979.13;5046375;28;20041;-72
2021/01/21 07:47:25;;;;;;;1.20;0.98;;;;;;;4.59;63.57;94972.34;5024272;28;20033;-72
2021/01/21 07:49:51;;;;;;;3.83;1.02;;;;;;;4.58;62.22;94962.19;5039432;28;20042;-72
2021/01/21 07:52:17;;;;;;;1.52;1.30;;;;;;;4.64;62.47;94971.69;5051859;28;20154;-72
2021/01/21 07:54:48;;;;;;;2.75;1.30;;;;;;;4.71;63.04;94962.03;5046432;28;20048;-72
2021/01/21 07:57:23;;;;;;;1.95;1.30;;;;;;;4.79;64.27;94979.94;5034302;28;20409;-72
2021/01/21 07:59:59;;;;;;;2.03;1.40;;;;;;;5.05;64.26;94980.63;5045933;28;20055;-72
2021/01/21 08:02:45;;;;;;;2.55;1.35;;;;;;;5.43;63.73;94969.91;5047448;28;20041;-72
2021/01/21 08:05:16;;;;;;;1.98;1.38;;;;;;;5.63;62.61;94966.25;5038835;28;20033;-72
2021/01/21 08:07:57;;;;;;;2.20;1.67;;;;;;;5.74;62.93;94969.88;5053111;28;20373;-72
2021/01/21 08:10:25;;;;;;;1.60;1.38;;;;;;;5.72;62.15;94958.91;5044174;28;20440;-72
2021/01/21 08:13:00;;;;;;;1.73;1.00;;;;;;;5.65;62.89;94956.41;5045733;28;20052;-72
2021/01/21 08:15:28;;;;;;;3.13;1.30;;;;;;;5.62;62.61;94952.44;5052875;28;20044;-76
2021/01/21 08:17:56;;;;;;;1.63;1.30;;;;;;;5.59;62.54;94955.50;5050200;28;20040;-72
2021/01/21 08:20:30;;;;;;;2.22;1.30;;;;;;;5.68;63.49;94966.34;5052718;28;20045;-72
2021/01/21 08:23:04;;;;;;;1.10;1.00;;;;;;;5.70;63.15;94965.13;5050105;28;20041;-72
2021/01/21 08:25:39;;;;;;;1.15;1.00;;;;;;;5.74;62.73;94957.66;5044162;28;20049;-72
2021/01/21 08:28:06;;;;;;;1.45;1.10;;;;;;;5.69;62.95;94953.13;5047669;28;20040;-72
2021/01/21 08:30:33;;;;;;;3.55;1.10;;;;;;;5.69;62.93;94957.53;5050691;28;20032;-72
2021/01/21 08:33:11;;;;;;;2.58;1.33;;;;;;;5.70;63.58;94956.53;5052313;28;20393;-72
2021/01/21 08:35:49;;;;;;;1.30;1.20;;;;;;;5.66;63.42;94958.00;5051434;28;20056;-72
2021/01/21 08:38:18;;;;;;;2.15;1.20;;;;;;;5.77;63.63;94957.19;5049569;28;20052;-72
2021/01/21 08:40:45;;;;;;;2.28;1.00;;;;;;;6.15;63.33;94969.03;5052453;28;20036;-77
2021/01/21 08:43:13;;;;;;;2.10;1.10;;;;;;;6.18;62.98;94962.59;5045651;28;20053;-73
2021/01/21 08:45:39;;;;;;;1.88;1.17;;;;;;;6.44;63.12;94966.53;5050470;28;20049;-72
2021/01/21 08:48:06;;;;;;;2.38;1.23;;;;;;;6.56;62.83;94954.31;5047885;28;20053;-72
2021/01/21 08:50:40;;;;;;;1.45;0.90;;;;;;;6.68;62.72;94955.06;5050229;28;20478;-72
2021/01/21 08:53:09;;;;;;;2.72;1.05;;;;;;;7.04;62.27;94955.78;5049427;28;20052;-72
2021/01/21 08:55:36;;;;;;;0.80;0.80;;;;;;;7.39;62.10;94951.44;5044619;28;20041;-72
2021/01/21 08:58:03;;;;;;;0.95;0.80;;;;;;;7.69;61.61;94951.97;5045062;28;20060;-72
2021/01/21 09:00:31;;;;;;;1.20;0.90;;;;;;;7.95;61.17;94941.13;5034717;28;20040;-72
2021/01/21 09:02:59;;;;;;;0.93;0.80;;;;;;;8.08;60.36;94935.56;5046632;28;20417;-72
2021/01/21 09:05:26;;;;;;;1.10;1.00;;;;;;;8.20;60.36;94946.72;5047637;28;20052;-72
2021/01/21 09:08:03;;;;;;;1.27;0.90;;;;;;;8.32;59.19;94936.19;5045247;28;20072;-72
2021/01/21 09:10:42;;;;;;;1.25;1.10;;;;;;;8.31;58.58;94940.59;5053949;28;20037;-72
2021/01/21 09:13:09;;;;;;;1.55;1.20;;;;;;;8.40;59.74;94950.66;5050107;28;20488;-72
2021/01/21 09:15:54;;;;;;;2.65;1.13;;;;;;;8.51;57.64;94937.50;5049389;28;20397;-72
2021/01/21 09:18:46;;;;;;;1.60;1.10;;;;;;;8.70;59.60;94953.69;5053881;28;20056;-72
2021/01/21 09:21:17;;;;;;;1.17;1.05;;;;;;;9.00;57.84;94928.16;5054892;28;20045;-72
2021/01/21 09:23:43;;;;;;;1.95;0.95;;;;;;;9.11;59.09;94946.34;5053100;28;20063;-72
2021/01/21 09:26:14;;;;;;;2.45;1.20;;;;;;;8.91;58.24;94946.09;5025432;28;20060;-71
2021/01/21 09:28:59;;;;;;;2.55;1.48;;;;;;;8.43;57.30;94940.53;5053406;28;20049;-71
2021/01/21 09:31:31;;;;;;;1.35;1.10;;;;;;;8.30;58.47;94951.31;5057454;28;20048;-72
2021/01/21 09:33:58;;;;;;;1.23;1.13;;;;;;;8.51;59.30;94960.25;5047087;28;20408;-71
2021/01/21 09:36:29;;;;;;;1.60;1.02;;;;;;;8.58;57.86;94944.38;5057489;28;20053;-72
2021/01/21 09:38:58;;;;;;;0.77;0.77;;;;;;;8.72;58.33;94946.41;5040380;28;20041;-71
2021/01/21 09:41:24;;;;;;;1.95;1.00;;;;;;;8.79;58.76;94935.75;5055723;28;20053;-71
2021/01/21 09:43:51;;;;;;;1.63;0.70;;;;;;;8.73;58.07;94918.44;5043682;28;20473;-72
2021/01/21 09:46:17;;;;;;;1.77;1.20;;;;;;;8.71;58.00;94933.56;5053920;28;20044;-72
2021/01/21 09:48:44;;;;;;;1.92;1.10;;;;;;;8.70;58.30;94942.47;5049407;28;20052;-71
2021/01/21 09:51:10;;;;;;;4.80;1.58;;;;;;;8.87;58.63;94945.78;5053730;28;20045;-71
2021/01/21 09:53:36;;;;;;;2.90;1.52;;;;;;;9.09;58.37;94950.22;5054762;28;20056;-72
2021/01/21 09:56:03;;;;;;;2.83;1.15;;;;;;;9.21;58.20;94950.88;5057247;28;20060;-72
2021/01/21 09:58:29;;;;;;;3.28;1.50;;;;;;;9.11;57.36;94954.19;5048612;28;20045;-72
2021/01/21 10:00:55;;;;;;;2.63;1.38;;;;;;;8.97;57.25;94952.97;5052097;28;20448;-76
2021/01/21 10:03:22;;;;;;;1.90;1.20;;;;;;;8.92;57.37;94958.13;5053927;28;20053;-72
2021/01/21 10:05:48;;;;;;;1.75;1.17;;;;;;;8.80;57.44;94954.84;5052370;28;20386;-72
2021/01/21 10:08:15;;;;;;;2.22;1.30;;;;;;;8.64;57.50;94957.28;5052083;28;20052;-72
2021/01/21 10:10:41;;;;;;;1.60;0.77;;;;;;;8.56;57.63;94957.69;5047407;28;20057;-72
2021/01/21 10:13:08;;;;;;;1.60;1.10;;;;;;;8.67;57.88;94958.59;5049368;28;20057;-72
2021/01/21 10:15:34;;;;;;;2.42;1.48;;;;;;;9.06;57.88;94959.34;5041359;28;20041;-72
2021/01/21 10:18:01;;;;;;;2.92;1.15;;;;;;;9.27;57.41;94955.13;5051917;28;20045;-72
2021/01/21 10:20:27;;;;;;;1.42;1.10;;;;;;;9.28;56.96;94948.88;5050203;28;20414;-71
2021/01/21 10:22:53;;;;;;;3.28;1.20;;;;;;;9.09;56.81;94952.81;5047983;28;20395;-71
2021/01/21 10:25:20;;;;;;;2.22;1.00;;;;;;;8.93;56.93;94954.50;5037767;28;20049;-72
2021/01/21 10:27:47;;;;;;;1.52;0.88;;;;;;;9.07;57.23;94962.75;5038906;28;20374;-72
2021/01/21 10:30:14;;;;;;;0.80;0.77;;;;;;;9.16;57.26;94950.06;5051174;28;20057;-74
2021/01/21 10:32:41;;;;;;;1.63;1.00;;;;;;;9.17;56.98;94956.84;5046758;28;20048;-72
2021/01/21 10:35:07;;;;;;;2.75;0.90;;;;;;;9.23;57.03;94961.09;5054415;28;20378;-72
2021/01/21 10:37:34;;;;;;;0.85;0.85;;;;;;;9.24;57.05;94960.03;5041747;28;20040;-73
2021/01/21 10:40:00;;;;;;;2.25;1.20;;;;;;;9.26;57.25;94968.44;5048532;28;20036;-72
2021/01/21 10:42:27;;;;;;;1.67;1.13;;;;;;;9.15;57.47;94962.31;5053041;28;20049;-73
2021/01/21 10:44:54;;;;;;;0.93;0.82;;;;;;;9.09;57.88;94969.31;5049221;28;20049;-72
2021/01/21 10:47:20;;;;;;;1.42;0.90;;;;;;;9.09;58.01;94969.31;5049611;28;20053;-72
2021/01/21 10:49:46;;;;;;;1.00;0.82;;;;;;;8.97;58.24;94973.91;5045849;28;20061;-72
2021/01/21 10:52:13;;;;;;;1.15;1.05;;;;;;;8.87;58.65;94987.63;5035989;28;20052;-72
2021/01/21 10:54:39;;;;;;;1.38;1.00;;;;;;;8.99;59.00;94986.69;5044964;28;20036;-72
2021/01/21 10:57:06;;;;;;;3.00;1.13;;;;;;;9.11;59.06;94985.56;5044886;28;20038;-72
2021/01/21 10:59:32;;;;;;;2.40;1.17;;;;;;;9.05;58.77;94970.84;5036188;28;20051;-72
2021/01/21 11:01:58;;;;;;;1.67;1.13;;;;;;;9.00;59.09;94981.22;5048952;28;20052;-72
2021/01/21 11:04:25;;;;;;;3.25;1.42;;;;;;;8.99;59.25;94969.22;5052272;28;20037;-73
2021/01/21 11:06:51;;;;;;;1.70;1.10;;;;;;;9.01;59.34;94979.41;5046575;28;20053;-72
2021/01/21 11:09:22;;;;;;;2.05;1.30;;;;;;;9.01;59.27;94971.56;5047956;28;20064;-73
2021/01/21 11:11:49;;;;;;;2.88;1.42;;;;;;;8.97;59.19;94979.13;5049300;28;20053;-72
2021/01/21 11:14:17;;;;;;;1.75;1.10;;;;;;;8.88;59.30;94968.31;5052089;28;20044;-75
2021/01/21 11:16:43;;;;;;;1.67;0.98;;;;;;;8.79;59.37;94959.28;5042777;28;20496;-73
2021/01/21 11:19:10;;;;;;;3.08;1.42;;;;;;;8.71;59.29;94957.09;5031873;28;20048;-72
2021/01/21 11:21:36;;;;;;;3.90;1.58;;;;;;;8.66;59.40;94962.25;5044946;28;20053;-73
2021/01/21 11:24:03;;;;;;;2.70;1.58;;;;;;;8.57;59.40;94951.44;5045273;28;20492;-73
2021/01/21 11:26:30;;;;;;;2.00;1.30;;;;;;;8.53;59.60;94963.41;5050290;28;20037;-73
2021/01/21 11:28:56;;;;;;;2.08;1.70;;;;;;;8.46;59.43;94955.75;5048818;28;20049;-73
2021/01/21 11:31:23;;;;;;;2.47;1.50;;;;;;;8.41;59.54;94958.28;5048696;28;20052;-73
2021/01/21 11:33:49;;;;;;;2.33;1.30;;;;;;;8.41;59.85;94962.72;5049668;28;20064;-73
2021/01/21 11:36:17;;;;;;;3.25;1.70;;;;;;;8.40;59.66;94956.69;5047240;28;20398;-73
2021/01/21 11:38:43;;;;;;;2.75;1.80;;;;;;;8.32;59.59;94952.66;5053541;28;20051;-73
2021/01/21 11:41:10;;;;;;;2.63;1.85;;;;;;;8.54;62.56;94954.53;5051626;28;20049;-74
2021/01/21 11:43:36;;;;;;;3.22;2.50;;;;;;;8.86;61.11;94946.03;5049824;28;20056;-73
2021/01/21 11:46:03;;;;;;;4.22;2.70;;;;;;;8.85;59.99;94940.03;5051752;28;20528;-73
2021/01/21 11:48:29;;;;;;;2.63;1.67;;;;;;;8.77;59.71;94943.06;5033249;28;20048;-73
2021/01/21 11:50:55;;;;;;;3.53;2.00;;;;;;;8.65;59.66;94943.19;5046763;28;20036;-73